createdAt,value
2022-12-28T00:02:18.249Z,3.80
2022-12-28T00:04:48.327Z,3.47
2022-12-28T00:07:16.974Z,4.30
2022-12-28T00:09:45.371Z,3.70
2022-12-28T00:12:13.908Z,4.30
2022-12-28T00:14:42.257Z,3.30
2022-12-28T00:17:10.690Z,3.60
2022-12-28T00:19:39.079Z,3.63
2022-12-28T00:22:08.893Z,4.07
2022-12-28T00:24:37.307Z,4.17
2022-12-28T00:27:05.741Z,4.07
2022-12-28T00:29:34.172Z,4.23
2022-12-28T00:32:02.735Z,4.07
2022-12-28T00:34:31.104Z,4.07
2022-12-28T00:37:10.917Z,4.50
2022-12-28T00:39:43.226Z,4.53
2022-12-28T00:42:15.854Z,4.77
2022-12-28T00:44:45.111Z,4.80
2022-12-28T00:47:13.461Z,5.00
2022-12-28T00:49:41.759Z,4.00
2022-12-28T00:52:10.067Z,4.67
2022-12-28T00:54:38.448Z,4.33
2022-12-28T00:57:08.098Z,4.50
2022-12-28T00:59:36.467Z,4.13
2022-12-28T01:02:04.829Z,4.13
2022-12-28T01:04:33.158Z,4.40
2022-12-28T01:07:01.602Z,4.50
2022-12-28T01:09:32.784Z,4.20
2022-12-28T01:12:01.196Z,4.83
2022-12-28T01:14:31.664Z,4.97
2022-12-28T01:17:00.042Z,4.07
2022-12-28T01:19:28.431Z,4.40
2022-12-28T01:21:57.952Z,3.53
2022-12-28T01:24:26.340Z,4.70
2022-12-28T01:26:54.688Z,3.80
2022-12-28T01:29:23.073Z,4.47
2022-12-28T01:31:53.016Z,3.60
2022-12-28T01:34:21.658Z,4.10
2022-12-28T01:36:50.000Z,4.20
2022-12-28T01:39:18.742Z,4.50
2022-12-28T01:41:47.341Z,4.50
2022-12-28T01:44:44.960Z,4.57
2022-12-28T01:47:23.277Z,4.37
2022-12-28T01:49:59.984Z,3.63
2022-12-28T01:52:35.799Z,3.80
2022-12-28T01:55:10.381Z,3.97
2022-12-28T01:57:46.593Z,3.73
2022-12-28T02:00:18.271Z,4.10
2022-12-28T02:02:59.055Z,4.37
2022-12-28T02:05:32.111Z,4.57
2022-12-28T02:08:07.420Z,3.90
2022-12-28T02:10:43.455Z,3.63
2022-12-28T02:13:14.437Z,4.60
2022-12-28T02:15:43.025Z,4.37
2022-12-28T02:18:14.602Z,4.53
2022-12-28T02:21:01.770Z,3.70
2022-12-28T02:23:56.532Z,4.07
2022-12-28T02:26:47.894Z,5.13
2022-12-28T02:30:07.264Z,4.47
2022-12-28T02:32:52.640Z,4.00
2022-12-28T02:35:30.644Z,4.60
2022-12-28T02:38:06.482Z,4.10
2022-12-28T02:40:40.483Z,4.70
2022-12-28T02:43:08.949Z,5.23
2022-12-28T02:45:59.892Z,5.10
2022-12-28T02:48:46.332Z,5.87
2022-12-28T02:51:46.287Z,4.83
2022-12-28T02:55:07.311Z,5.23
2022-12-28T02:57:56.333Z,5.70
2022-12-28T03:00:30.445Z,5.30
2022-12-28T03:03:19.159Z,4.60
2022-12-28T03:06:19.126Z,5.70
2022-12-28T03:08:55.407Z,5.77
2022-12-28T03:11:32.577Z,5.00
2022-12-28T03:14:08.196Z,4.97
2022-12-28T03:16:53.678Z,5.43
2022-12-28T03:19:51.070Z,5.57
2022-12-28T03:22:38.605Z,5.40
2022-12-28T03:25:32.333Z,5.67
2022-12-28T03:28:23.662Z,5.27
2022-12-28T03:31:07.823Z,5.13
2022-12-28T03:33:49.271Z,5.20
2022-12-28T03:36:28.025Z,5.80
2022-12-28T03:39:05.482Z,6.63
2022-12-28T03:41:40.513Z,5.70
2022-12-28T03:44:35.551Z,5.73
2022-12-28T03:47:10.835Z,6.23
2022-12-28T03:49:40.691Z,6.50
2022-12-28T03:52:12.267Z,6.30
2022-12-28T03:54:41.780Z,6.13
2022-12-28T03:57:13.696Z,6.57
2022-12-28T03:59:45.052Z,6.20
2022-12-28T04:02:14.059Z,5.50
2022-12-28T04:04:43.146Z,5.90
2022-12-28T04:07:13.115Z,6.10
2022-12-28T04:09:41.633Z,5.83
2022-12-28T04:12:14.607Z,5.73
2022-12-28T04:15:07.325Z,5.37
2022-12-28T04:17:36.281Z,6.40
2022-12-28T04:20:06.039Z,5.90
2022-12-28T04:22:36.480Z,5.73
2022-12-28T04:25:06.136Z,5.50
2022-12-28T04:27:36.228Z,5.03
2022-12-28T04:30:12.800Z,5.67
2022-12-28T04:32:41.144Z,4.43
2022-12-28T04:35:10.349Z,5.30
2022-12-28T04:37:48.113Z,4.17
2022-12-28T04:40:16.903Z,5.47
2022-12-28T04:42:45.283Z,4.60
2022-12-28T04:45:16.979Z,4.53
2022-12-28T04:47:49.985Z,4.40
2022-12-28T04:50:18.519Z,4.73
2022-12-28T04:52:48.238Z,3.70
2022-12-28T04:55:33.123Z,4.20
2022-12-28T04:58:02.100Z,4.20
2022-12-28T05:00:30.503Z,4.10
2022-12-28T05:03:00.707Z,4.07
2022-12-28T05:05:29.976Z,3.73
2022-12-28T05:08:02.495Z,3.77
2022-12-28T05:10:31.379Z,4.07
2022-12-28T05:12:59.768Z,3.30
2022-12-28T05:15:28.071Z,3.10
2022-12-28T05:17:57.116Z,3.20
2022-12-28T05:20:25.414Z,2.73
2022-12-28T05:22:53.683Z,3.30
2022-12-28T05:25:23.604Z,2.77
2022-12-28T05:27:52.004Z,3.10
2022-12-28T05:30:20.321Z,3.87
2022-12-28T05:32:48.659Z,3.03
2022-12-28T05:35:17.131Z,3.23
2022-12-28T05:37:45.438Z,3.50
2022-12-28T05:40:13.982Z,3.10
2022-12-28T05:42:49.658Z,3.57
2022-12-28T05:45:20.230Z,3.77
2022-12-28T05:47:48.582Z,4.00
2022-12-28T05:50:17.291Z,3.60
2022-12-28T05:52:45.772Z,3.27
2022-12-28T05:55:14.073Z,3.33
2022-12-28T05:57:43.784Z,3.20
2022-12-28T06:00:13.494Z,3.40
2022-12-28T06:02:41.990Z,3.00
2022-12-28T06:05:10.910Z,3.07
2022-12-28T06:07:39.238Z,3.30
2022-12-28T06:10:09.291Z,3.30
2022-12-28T06:12:37.714Z,2.70
2022-12-28T06:15:09.270Z,3.00
2022-12-28T06:17:38.128Z,2.97
2022-12-28T06:20:08.336Z,2.83
2022-12-28T06:22:36.732Z,2.77
2022-12-28T06:25:05.614Z,2.80
2022-12-28T06:27:33.873Z,2.80
2022-12-28T06:30:02.219Z,2.87
2022-12-28T06:32:31.947Z,2.70
2022-12-28T06:35:00.237Z,2.77
2022-12-28T06:37:28.534Z,2.57
2022-12-28T06:39:56.839Z,2.90
2022-12-28T06:42:25.245Z,2.20
2022-12-28T06:44:53.715Z,2.60
2022-12-28T06:47:22.141Z,2.13
2022-12-28T06:49:51.865Z,2.73
2022-12-28T06:52:20.246Z,4.27
2022-12-28T06:54:48.544Z,2.70
2022-12-28T06:57:16.940Z,2.73
2022-12-28T06:59:45.213Z,2.23
2022-12-28T07:02:13.654Z,2.37
2022-12-28T07:04:42.056Z,2.10
2022-12-28T07:07:11.866Z,2.10
2022-12-28T07:09:40.205Z,2.33
2022-12-28T07:12:08.811Z,2.63
2022-12-28T07:14:37.215Z,2.10
2022-12-28T07:17:05.507Z,2.67
2022-12-28T07:19:33.887Z,2.50
2022-12-28T07:22:03.255Z,2.20
2022-12-28T07:24:32.956Z,2.53
2022-12-28T07:27:01.312Z,2.40
2022-12-28T07:29:29.695Z,2.00
2022-12-28T07:31:58.015Z,2.33
2022-12-28T07:34:26.315Z,2.03
2022-12-28T07:36:54.730Z,2.23
2022-12-28T07:39:23.109Z,2.10
2022-12-28T07:41:52.840Z,2.10
2022-12-28T07:44:25.567Z,2.30
2022-12-28T07:46:57.609Z,2.00
2022-12-28T07:49:25.988Z,2.13
2022-12-28T07:51:54.319Z,2.33
2022-12-28T07:54:22.657Z,2.33
2022-12-28T07:56:52.364Z,2.70
2022-12-28T07:59:22.721Z,2.40
2022-12-28T08:01:53.305Z,2.50
2022-12-28T08:04:21.782Z,2.10
2022-12-28T08:06:50.085Z,2.40
2022-12-28T08:09:18.369Z,2.67
2022-12-28T08:11:49.778Z,3.20
2022-12-28T08:14:19.566Z,2.90
2022-12-28T08:16:47.868Z,3.20
2022-12-28T08:19:16.540Z,2.73
2022-12-28T08:21:46.483Z,3.40
2022-12-28T08:24:17.591Z,2.83
2022-12-28T08:26:47.458Z,3.10
2022-12-28T08:29:20.350Z,2.40
2022-12-28T08:31:49.792Z,2.20
2022-12-28T08:34:23.136Z,2.50
2022-12-28T08:36:51.459Z,3.13
2022-12-28T08:39:19.851Z,3.10
2022-12-28T08:41:48.380Z,2.87
2022-12-28T08:44:16.711Z,3.33
2022-12-28T08:46:46.525Z,4.00
2022-12-28T08:49:15.210Z,3.50
2022-12-28T08:51:44.029Z,3.63
2022-12-28T08:54:14.892Z,4.47
2022-12-28T08:56:45.979Z,3.70
2022-12-28T08:59:17.329Z,4.10
2022-12-28T09:01:48.529Z,4.10
2022-12-28T09:04:20.356Z,4.07
2022-12-28T09:06:49.718Z,3.70
2022-12-28T09:09:21.008Z,3.80
2022-12-28T09:11:50.096Z,3.70
2022-12-28T09:14:23.748Z,3.40
2022-12-28T09:16:54.904Z,3.60
2022-12-28T09:19:24.046Z,3.57
2022-12-28T09:21:55.244Z,4.10
2022-12-28T09:24:24.464Z,3.77
2022-12-28T09:26:54.626Z,4.53
2022-12-28T09:29:23.066Z,3.63
2022-12-28T09:31:51.541Z,3.83
2022-12-28T09:34:37.787Z,3.90
2022-12-28T09:37:07.730Z,3.30
2022-12-28T09:39:36.151Z,3.60
2022-12-28T09:42:12.496Z,3.27
2022-12-28T09:45:04.196Z,3.03
2022-12-28T09:47:39.906Z,3.80
2022-12-28T09:50:29.941Z,3.00
2022-12-28T09:53:26.763Z,3.80
2022-12-28T09:56:04.454Z,3.87
2022-12-28T09:58:37.981Z,3.10
2022-12-28T10:01:13.511Z,3.10
2022-12-28T10:03:45.232Z,2.97
2022-12-28T10:06:17.933Z,3.13
2022-12-28T10:08:50.035Z,3.67
2022-12-28T10:11:23.711Z,3.60
2022-12-28T10:13:59.521Z,2.90
2022-12-28T10:16:32.604Z,2.97
2022-12-28T10:19:01.628Z,2.80
2022-12-28T10:21:34.521Z,2.93
2022-12-28T10:26:58.186Z,2.80
2022-12-28T10:29:28.336Z,2.80
2022-12-28T10:32:02.709Z,2.63
2022-12-28T10:34:34.288Z,2.87
2022-12-28T10:37:15.380Z,2.63
2022-12-28T10:39:52.730Z,3.00
2022-12-28T10:42:27.292Z,2.90
2022-12-28T10:45:03.498Z,2.80
2022-12-28T10:47:36.195Z,2.80
2022-12-28T10:53:00.172Z,3.83
2022-12-28T10:55:32.113Z,2.70
2022-12-28T10:58:30.263Z,3.23
2022-12-28T11:01:02.860Z,5.00
2022-12-28T11:03:35.550Z,3.70
2022-12-28T11:06:19.874Z,3.63
2022-12-28T11:09:07.593Z,2.80
2022-12-28T11:11:36.184Z,2.63
2022-12-28T11:14:13.655Z,2.83
2022-12-28T11:16:43.381Z,3.77
2022-12-28T11:19:13.066Z,3.10
2022-12-28T11:21:44.169Z,2.90
2022-12-28T11:24:17.283Z,2.93
2022-12-28T11:26:49.104Z,3.73
2022-12-28T11:29:20.446Z,3.37
2022-12-28T11:31:54.432Z,3.17
2022-12-28T11:34:28.032Z,3.67
2022-12-28T11:36:57.115Z,2.83
2022-12-28T11:39:46.370Z,2.57
2022-12-28T11:42:55.171Z,2.70
2022-12-28T11:45:54.308Z,3.17
2022-12-28T11:48:47.681Z,3.37
2022-12-28T11:51:18.570Z,2.63
2022-12-28T11:53:58.516Z,2.50
2022-12-28T11:56:50.316Z,2.93
2022-12-28T11:59:25.870Z,2.87
2022-12-28T12:01:59.479Z,2.70
2022-12-28T12:04:35.015Z,2.80
2022-12-28T12:07:46.607Z,2.60
2022-12-28T12:10:35.334Z,2.40
2022-12-28T12:13:38.994Z,2.43
2022-12-28T12:16:21.727Z,2.73
2022-12-28T12:18:54.668Z,2.50
2022-12-28T12:21:32.728Z,3.23
2022-12-28T12:24:14.481Z,2.57
2022-12-28T12:26:51.188Z,2.90
2022-12-28T12:29:24.924Z,3.00
2022-12-28T12:32:02.231Z,2.80
2022-12-28T12:34:42.950Z,3.17
2022-12-28T12:37:30.542Z,2.57
2022-12-28T12:40:50.318Z,2.90
2022-12-28T12:43:31.630Z,2.33
2022-12-28T12:46:20.409Z,2.93
2022-12-28T12:49:15.282Z,2.60
2022-12-28T12:51:53.838Z,3.97
2022-12-28T12:54:37.788Z,3.00
2022-12-28T12:57:16.935Z,2.83
2022-12-28T13:00:03.664Z,2.30
2022-12-28T13:03:30.526Z,2.60
2022-12-28T13:06:00.878Z,2.13
2022-12-28T13:08:41.934Z,3.17
2022-12-28T13:11:11.759Z,2.70
2022-12-28T13:13:42.812Z,2.27
2022-12-28T13:16:17.359Z,2.53
2022-12-28T13:18:55.934Z,2.57
2022-12-28T13:21:27.950Z,2.57
2022-12-28T13:23:56.453Z,2.10
2022-12-28T13:26:29.926Z,2.50
2022-12-28T13:29:01.765Z,2.70
2022-12-28T13:31:35.344Z,3.10
2022-12-28T13:34:06.662Z,3.57
2022-12-28T13:36:36.569Z,2.83
2022-12-28T13:39:12.829Z,2.20
2022-12-28T13:41:50.266Z,2.87
2022-12-28T13:44:45.508Z,2.93
2022-12-28T13:47:23.400Z,2.57
2022-12-28T13:49:58.990Z,2.20
2022-12-28T13:52:34.029Z,3.20
2022-12-28T13:55:08.546Z,3.00
2022-12-28T13:57:50.135Z,2.50
2022-12-28T14:00:20.850Z,2.53
2022-12-28T14:02:53.344Z,2.50
2022-12-28T14:05:27.016Z,3.27
2022-12-28T14:07:59.470Z,3.63
2022-12-28T14:10:28.574Z,2.83
2022-12-28T14:12:57.816Z,3.70
2022-12-28T14:15:26.881Z,2.40
2022-12-28T14:17:55.759Z,3.80
2022-12-28T14:20:24.295Z,2.70
2022-12-28T14:22:52.835Z,2.50
2022-12-28T14:25:24.137Z,3.03
2022-12-28T14:27:58.691Z,3.10
2022-12-28T14:30:31.496Z,3.60
2022-12-28T14:33:22.384Z,2.10
2022-12-28T14:35:56.220Z,2.27
2022-12-28T14:38:30.057Z,2.80
2022-12-28T14:41:03.348Z,2.97
2022-12-28T14:43:36.636Z,3.00
2022-12-28T14:46:18.185Z,2.37
2022-12-28T14:48:46.803Z,2.40
2022-12-28T14:51:31.564Z,2.30
2022-12-28T14:54:19.312Z,1.90
2022-12-28T14:56:54.732Z,2.30
2022-12-28T14:59:28.431Z,2.07
2022-12-28T15:01:57.102Z,3.50
2022-12-28T15:04:37.734Z,2.00
2022-12-28T15:07:08.287Z,2.90
2022-12-28T15:09:37.042Z,2.30
2022-12-28T15:12:14.924Z,2.13
2022-12-28T15:14:44.056Z,2.00
2022-12-28T15:17:12.504Z,1.80
2022-12-28T15:19:42.554Z,2.20
2022-12-28T15:22:10.944Z,2.47
2022-12-28T15:24:41.596Z,1.93
2022-12-28T15:27:11.448Z,2.07
2022-12-28T15:30:04.382Z,2.23
2022-12-28T15:32:29.435Z,2.83
2022-12-28T15:34:57.848Z,2.80
2022-12-28T15:37:26.198Z,2.50
2022-12-28T15:39:54.685Z,2.70
2022-12-28T15:42:24.426Z,2.47
2022-12-28T15:44:54.034Z,2.33
2022-12-28T15:47:23.301Z,2.97
2022-12-28T15:49:51.674Z,2.67
2022-12-28T15:52:20.041Z,2.33
2022-12-28T15:54:48.373Z,2.00
2022-12-28T15:57:16.977Z,2.70
2022-12-28T15:59:47.457Z,2.73
2022-12-28T16:02:16.676Z,2.60
2022-12-28T16:04:45.212Z,3.03
2022-12-28T16:07:13.724Z,2.33
2022-12-28T16:09:42.104Z,2.47
2022-12-28T16:12:10.535Z,3.30
2022-12-28T16:14:39.114Z,2.30
2022-12-28T16:17:08.910Z,2.83
2022-12-28T16:19:37.300Z,2.93
2022-12-28T16:22:05.692Z,2.97
2022-12-28T16:24:34.318Z,3.07
2022-12-28T16:27:02.848Z,3.30
2022-12-28T16:29:31.368Z,4.27
2022-12-28T16:32:01.494Z,3.90
2022-12-28T16:34:31.781Z,3.37
2022-12-28T16:37:00.496Z,3.83
2022-12-28T16:39:30.851Z,3.50
2022-12-28T16:41:59.683Z,3.00
2022-12-28T16:44:29.390Z,2.57
2022-12-28T16:46:59.725Z,2.60
2022-12-28T16:49:30.705Z,2.63
2022-12-28T16:51:59.348Z,3.67
2022-12-28T16:54:29.169Z,3.20
2022-12-28T16:56:57.704Z,2.63
2022-12-28T16:59:28.874Z,3.57
2022-12-28T17:01:59.195Z,2.77
2022-12-28T17:04:28.117Z,3.63
2022-12-28T17:06:57.895Z,3.37
2022-12-28T17:09:26.369Z,3.23
2022-12-28T17:11:54.692Z,3.33
2022-12-28T17:14:37.347Z,3.10
2022-12-28T17:17:07.136Z,2.73
2022-12-28T17:19:36.210Z,2.83
2022-12-28T17:22:06.625Z,2.47
2022-12-28T17:24:34.971Z,3.00
2022-12-28T17:27:07.744Z,2.97
2022-12-28T17:29:37.476Z,2.93
2022-12-28T17:32:07.367Z,2.73
2022-12-28T17:34:36.067Z,2.60
2022-12-28T17:37:06.020Z,2.87
2022-12-28T17:39:40.302Z,2.90
2022-12-28T17:42:10.258Z,2.93
2022-12-28T17:44:38.755Z,2.80
2022-12-28T17:47:07.261Z,2.70
2022-12-28T17:49:35.703Z,2.83
2022-12-28T17:52:05.693Z,2.70
2022-12-28T17:54:34.865Z,3.00
2022-12-28T17:57:03.244Z,2.40
2022-12-28T17:59:31.933Z,2.93
2022-12-28T18:02:01.978Z,2.73
2022-12-28T18:04:30.880Z,3.40
2022-12-28T18:06:59.210Z,2.57
2022-12-28T18:09:29.069Z,2.70
2022-12-28T18:11:57.683Z,2.90
2022-12-28T18:14:26.291Z,2.97
2022-12-28T18:16:55.466Z,3.40
2022-12-28T18:19:23.921Z,2.77
2022-12-28T18:21:52.454Z,3.37
2022-12-28T18:24:22.385Z,3.23
2022-12-28T18:26:52.192Z,4.60
2022-12-28T18:29:20.652Z,3.97
2022-12-28T18:31:49.026Z,3.60
2022-12-28T18:34:17.443Z,3.50
2022-12-28T18:36:45.861Z,4.17
2022-12-28T18:39:14.563Z,3.53
2022-12-28T18:41:42.974Z,4.10
2022-12-28T18:44:12.694Z,4.90
2022-12-28T18:46:41.522Z,4.80
2022-12-28T18:49:09.903Z,4.10
2022-12-28T18:51:39.793Z,3.97
2022-12-28T18:54:08.156Z,4.03
2022-12-28T18:56:36.499Z,3.97
2022-12-28T18:59:04.919Z,2.93
2022-12-28T19:04:25.399Z,5.13
2022-12-28T19:06:53.941Z,5.37
2022-12-28T19:09:23.357Z,17.23
2022-12-28T19:11:52.771Z,4.43
2022-12-28T19:14:21.199Z,4.10
2022-12-28T19:16:50.917Z,4.47
2022-12-28T19:19:20.453Z,5.47
2022-12-28T19:21:52.290Z,4.17
2022-12-28T19:24:23.616Z,4.87
2022-12-28T19:26:53.755Z,3.60
2022-12-28T19:29:22.154Z,4.40
2022-12-28T19:31:51.934Z,4.50
2022-12-28T19:34:20.369Z,4.57
2022-12-28T19:36:48.819Z,4.23
2022-12-28T19:39:17.298Z,3.67
2022-12-28T19:41:45.630Z,5.00
2022-12-28T19:44:14.574Z,4.60
2022-12-28T19:46:43.146Z,4.27
2022-12-28T19:49:12.871Z,4.57
2022-12-28T19:51:42.851Z,4.10
2022-12-28T19:54:12.507Z,5.03
2022-12-28T19:56:41.114Z,4.20
2022-12-28T19:59:09.689Z,4.40
2022-12-28T20:01:39.283Z,4.87
2022-12-28T20:04:13.477Z,3.93
2022-12-28T20:06:45.325Z,3.87
2022-12-28T20:09:15.518Z,4.20
2022-12-28T20:11:45.643Z,4.23
2022-12-28T20:14:20.383Z,5.40
2022-12-28T20:16:52.870Z,5.97
2022-12-28T20:19:21.261Z,5.27
2022-12-28T20:21:51.211Z,5.33
2022-12-28T20:24:21.765Z,5.37
2022-12-28T20:26:50.201Z,3.60
2022-12-28T20:29:18.568Z,4.13
2022-12-28T20:31:46.981Z,3.83
2022-12-28T20:34:15.352Z,3.37
2022-12-28T20:36:43.778Z,3.50
2022-12-28T20:39:13.613Z,4.00
2022-12-28T20:41:59.291Z,3.53
2022-12-28T20:44:31.349Z,3.27
2022-12-28T20:47:00.769Z,4.10
2022-12-28T20:49:31.459Z,3.70
2022-12-28T20:51:59.814Z,4.80
2022-12-28T20:54:29.724Z,3.40
2022-12-28T20:56:58.106Z,3.93
2022-12-28T20:59:26.980Z,4.23
2022-12-28T21:01:55.794Z,3.00
2022-12-28T21:04:25.753Z,3.80
2022-12-28T21:06:55.151Z,3.40
2022-12-28T21:09:24.085Z,3.30
2022-12-28T21:11:53.764Z,3.17
2022-12-28T21:14:24.216Z,3.20
2022-12-28T21:16:52.895Z,3.20
2022-12-28T21:19:23.678Z,3.07
2022-12-28T21:21:52.022Z,2.90
2022-12-28T21:24:20.365Z,3.30
2022-12-28T21:26:48.744Z,3.67
2022-12-28T21:29:25.436Z,2.27
2022-12-28T21:31:54.782Z,3.43
2022-12-28T21:34:23.606Z,2.73
2022-12-28T21:36:51.946Z,3.10
2022-12-28T21:39:20.977Z,2.73
2022-12-28T21:41:50.498Z,2.80
2022-12-28T21:44:24.418Z,3.00
2022-12-28T21:46:54.418Z,2.90
2022-12-28T21:49:23.200Z,2.80
2022-12-28T21:51:54.855Z,2.80
2022-12-28T21:54:24.020Z,2.93
2022-12-28T21:56:55.590Z,2.73
2022-12-28T21:59:27.646Z,2.80
2022-12-28T22:02:14.046Z,2.47
2022-12-28T22:05:03.621Z,2.70
2022-12-28T22:07:32.918Z,2.63
2022-12-28T22:10:20.037Z,2.80
2022-12-28T22:12:48.415Z,3.13
2022-12-28T22:15:39.976Z,3.50
2022-12-28T22:18:37.096Z,2.60
2022-12-28T22:21:08.839Z,2.37
2022-12-28T22:23:38.142Z,2.60
2022-12-28T22:26:10.491Z,2.97
2022-12-28T22:28:40.688Z,2.57
2022-12-28T22:31:10.920Z,2.50
2022-12-28T22:33:39.455Z,2.50
2022-12-28T22:36:13.927Z,2.63
2022-12-28T22:38:42.593Z,2.20
2022-12-28T22:41:13.960Z,2.50
2022-12-28T22:43:43.700Z,2.97
2022-12-28T22:46:13.637Z,2.50
2022-12-28T22:48:41.977Z,2.93
2022-12-28T22:51:13.554Z,2.70
2022-12-28T22:53:43.875Z,2.20
2022-12-28T22:56:23.148Z,2.30
2022-12-28T22:58:51.567Z,2.30
2022-12-28T23:01:22.097Z,1.90
2022-12-28T23:03:51.658Z,1.93
2022-12-28T23:06:21.625Z,1.90
2022-12-28T23:08:50.002Z,2.20
2022-12-28T23:11:39.348Z,2.00
2022-12-28T23:14:29.954Z,2.73
2022-12-28T23:17:00.761Z,1.90
2022-12-28T23:19:47.907Z,2.10
2022-12-28T23:22:36.676Z,1.77
2022-12-28T23:25:24.356Z,2.07
2022-12-28T23:27:54.611Z,1.70
2022-12-28T23:30:24.566Z,2.27
2022-12-28T23:33:00.938Z,2.00
2022-12-28T23:35:32.951Z,1.70
2022-12-28T23:38:01.362Z,1.90
2022-12-28T23:40:29.989Z,1.80
2022-12-28T23:42:58.836Z,2.27
2022-12-28T23:45:27.486Z,2.40
2022-12-28T23:47:57.204Z,1.53
2022-12-28T23:50:27.837Z,2.03
2022-12-28T23:52:58.861Z,2.07
2022-12-28T23:55:30.150Z,1.60
2022-12-28T23:58:15.637Z,2.00
